Alianca Shanghai — A8CQ5 — position and weather

sailwx.info

Track history (hours):
 
Tides and Currents Weather Stations Pressure Air Temp Water Temp Dewpoint Dewpoint Depression Visibility Wind Speed Wind Dir Waves Ship Positions

Alianca Shanghai

Last reported at 2014-Jun-22 09:04 UTC. Time now 2014-Jul-29 02:34 UTC.
Position N 37°21' W 000°53'.
Warning: this ship's position is 36 days out of date.

Length 199.9 m; beam 29.8 m; draft 11.6 m.

Type: Ship (hazmat cat A). MMSI: 636016014.

Date/timePositionNaut miles runAvg speedWind from/ knotsBaromVisibWave heightAir tempDewpointWater temp
2014-Jun-22 09:04N 37°21' W 000°53'813.5
2014-Jun-22 08:28N 37°26' W 000°45'1213.5
2014-Jun-22 07:33N 37°34' W 000°34'1313.5
2014-Jun-22 06:33N 37°45' W 000°24'1413.6
2014-Jun-22 05:33N 37°57' W 000°15'1313.3
2014-Jun-22 04:33N 38°08' W 000°06'4811.9
2014-Jun-22 00:33N 38°52' E 000°18'28 1.3
2014-Jun-21 03:14N 39°14' W 000°04'3813.4
2014-Jun-21 00:23N 38°46' E 000°28'1414.7
2014-Jun-20 23:27N 38°33' E 000°21'5915.0
2014-Jun-20 19:33N 37°45' W 000°21'1515.2
2014-Jun-20 18:33N 37°32' W 000°32'24715.4
2014-Jun-20 02:26N 35°59' W 005°18'20912.4
2014-Jun-19 09:33N 37°31' W 009°12'1414.1
2014-Jun-19 08:33N 37°43' W 009°01'1414.0
2014-Jun-19 07:33N 37°54' W 008°51'2 2.3
2014-Jun-19 06:33N 37°56' W 008°51'0 0.0
2014-Jun-19 05:33N 37°56' W 008°51'0 0.0
2014-Jun-19 04:33N 37°56' W 008°51'0 0.0
2014-Jun-19 03:33N 37°56' W 008°51'0 0.0
2014-Jun-19 02:33N 37°56' W 008°51'0 0.0
2014-Jun-19 01:33N 37°56' W 008°51'0 0.0
2014-Jun-19 00:33N 37°56' W 008°51'0 0.0
2014-Jun-18 23:33N 37°56' W 008°51'0 0.0
2014-Jun-18 22:33N 37°56' W 008°51'0 0.0
2014-Jun-18 21:33N 37°56' W 008°51'0 0.0
2014-Jun-18 20:33N 37°56' W 008°51'0 0.0
2014-Jun-18 19:33N 37°56' W 008°51'0 0.0
2014-Jun-18 18:33N 37°56' W 008°51'0 0.0
2014-Jun-18 17:33N 37°56' W 008°51'0 0.0
2014-Jun-18 16:33N 37°56' W 008°51'0 0.0
2014-Jun-18 15:27N 37°56' W 008°51'0 0.0
2014-Jun-18 14:33N 37°56' W 008°51'0 0.0
2014-Jun-18 13:33N 37°56' W 008°51'3 2.6
2014-Jun-18 12:33N 37°53' W 008°50'5 4.6
2014-Jun-18 11:33N 37°50' W 008°54'1110.9
2014-Jun-18 10:33N 37°41' W 009°03'1614.2
2014-Jun-18 09:25N 37°29' W 009°15'  
Track history (hours):
 
Tides and Currents Weather Stations Pressure Air Temp Water Temp Dewpoint Dewpoint Depression Visibility Wind Speed Wind Dir Waves Ship Positions

Alianca Shanghai

Last reported at 2014-Jun-22 09:04 UTC. Time now 2014-Jul-29 02:34 UTC.
Position N 37°21' W 000°53'.
Warning: this ship's position is 36 days out of date.

Length 199.9 m; beam 29.8 m; draft 11.6 m.

Type: Ship (hazmat cat A). MMSI: 636016014.

Date/timePositionNaut miles runAvg speedWind from/ knotsBaromVisibWave heightAir tempDewpointWater temp
2014-Jun-22 09:04N 37°21' W 000°53'813.5
2014-Jun-22 08:28N 37°26' W 000°45'1213.5
2014-Jun-22 07:33N 37°34' W 000°34'1313.5
2014-Jun-22 06:33N 37°45' W 000°24'1413.6
2014-Jun-22 05:33N 37°57' W 000°15'1313.3
2014-Jun-22 04:33N 38°08' W 000°06'4811.9
2014-Jun-22 00:33N 38°52' E 000°18'28 1.3
2014-Jun-21 03:14N 39°14' W 000°04'3813.4
2014-Jun-21 00:23N 38°46' E 000°28'1414.7
2014-Jun-20 23:27N 38°33' E 000°21'5915.0
2014-Jun-20 19:33N 37°45' W 000°21'1515.2
2014-Jun-20 18:33N 37°32' W 000°32'24715.4
2014-Jun-20 02:26N 35°59' W 005°18'20912.4
2014-Jun-19 09:33N 37°31' W 009°12'1414.1
2014-Jun-19 08:33N 37°43' W 009°01'1414.0
2014-Jun-19 07:33N 37°54' W 008°51'2 2.3
2014-Jun-19 06:33N 37°56' W 008°51'0 0.0
2014-Jun-19 05:33N 37°56' W 008°51'0 0.0
2014-Jun-19 04:33N 37°56' W 008°51'0 0.0
2014-Jun-19 03:33N 37°56' W 008°51'0 0.0
2014-Jun-19 02:33N 37°56' W 008°51'0 0.0
2014-Jun-19 01:33N 37°56' W 008°51'0 0.0
2014-Jun-19 00:33N 37°56' W 008°51'0 0.0
2014-Jun-18 23:33N 37°56' W 008°51'0 0.0
2014-Jun-18 22:33N 37°56' W 008°51'0 0.0
2014-Jun-18 21:33N 37°56' W 008°51'0 0.0
2014-Jun-18 20:33N 37°56' W 008°51'0 0.0
2014-Jun-18 19:33N 37°56' W 008°51'0 0.0
2014-Jun-18 18:33N 37°56' W 008°51'0 0.0
2014-Jun-18 17:33N 37°56' W 008°51'0 0.0
2014-Jun-18 16:33N 37°56' W 008°51'0 0.0
2014-Jun-18 15:27N 37°56' W 008°51'0 0.0
2014-Jun-18 14:33N 37°56' W 008°51'0 0.0
2014-Jun-18 13:33N 37°56' W 008°51'3 2.6
2014-Jun-18 12:33N 37°53' W 008°50'5 4.6
2014-Jun-18 11:33N 37°50' W 008°54'1110.9
2014-Jun-18 10:33N 37°41' W 009°03'1614.2
2014-Jun-18 09:25N 37°29' W 009°15'  

Dump ship's entire track history